Guriat, Saudi Arabia
Current Conditions -  °F | °C
As of 4:00 PM on Friday 19 Dec 2014 (Local Time) from OEGT Reporting Station
Clear Clear  
Wind Chill: 63°   Ceiling: Unl
Heat Index: 63°   Visibility: 6mi
Dew Point: 41°   Wind: 7mph
Humidity: 45%   Direction: 300°WNW
Pressure: 30.03"   Gusts: NA
Location:  31.41°N, 37.28°E
Report Text: OEGT 191300Z 30006KT CAVOK 17/05 Q1017 NOSIG
Loading
Personal Weather Stations






























Interactive Weather Map New forecast layout! Learn more

10-Day Weather Forecast

Advertisements
Track Severe Weather on mobile